createdAt,value
2019-04-01T00:51:01.124Z,0.37
2019-04-01T01:11:44.465Z,0.35
2019-04-01T02:22:51.288Z,0.20
2019-04-01T02:39:30.185Z,0.35
2019-04-01T02:57:29.616Z,0.75
2019-04-01T03:00:00.745Z,0.47
2019-04-01T03:02:31.515Z,0.40
2019-04-01T03:05:02.305Z,0.30
2019-04-01T03:07:32.923Z,0.50
2019-04-01T03:10:04.808Z,0.23
2019-04-01T03:18:01.322Z,0.40
2019-04-01T03:20:32.214Z,0.62
2019-04-01T03:23:03.065Z,0.30
2019-04-01T03:25:34.049Z,0.33
2019-04-01T03:28:04.774Z,0.20
2019-04-01T03:30:35.462Z,0.20
2019-04-01T03:33:05.882Z,0.10
2019-04-01T03:35:36.381Z,0.13
2019-04-01T03:38:06.729Z,0.10
2019-04-01T03:40:37.149Z,0.68
2019-04-01T03:43:07.494Z,0.10
2019-04-01T03:45:37.890Z,0.10
2019-04-01T03:48:08.287Z,0.10
2019-04-01T03:50:38.715Z,0.10
2019-04-01T03:53:09.146Z,0.10
2019-04-01T03:55:39.545Z,0.10
2019-04-01T03:58:10.141Z,0.45
2019-04-01T04:00:40.499Z,0.10
2019-04-01T04:03:11.208Z,0.10
2019-04-01T04:05:41.521Z,0.40
2019-04-01T04:08:11.972Z,0.17
2019-04-01T04:10:42.434Z,0.40
2019-04-01T04:13:12.912Z,0.30
2019-04-01T04:15:43.356Z,0.10
2019-04-01T04:18:14.700Z,1.20
2019-04-01T04:20:45.094Z,0.10
2019-04-01T04:23:15.438Z,0.42
2019-04-01T04:25:45.866Z,0.33
2019-04-01T04:28:16.622Z,0.20
2019-04-01T04:30:47.282Z,0.10
2019-04-01T04:33:18.417Z,0.10
2019-04-01T04:35:49.764Z,0.30
2019-04-01T04:38:20.924Z,0.10
2019-04-01T04:40:52.014Z,0.23
2019-04-01T04:43:23.342Z,0.10
2019-04-01T04:45:53.846Z,0.53
2019-04-01T04:48:24.375Z,0.20
2019-04-01T04:50:56.760Z,0.15
2019-04-01T04:53:45.254Z,0.17
2019-04-01T04:56:16.509Z,0.75
2019-04-01T04:58:48.395Z,0.10
2019-04-01T05:01:19.296Z,0.10
2019-04-01T05:03:49.924Z,0.23
2019-04-01T05:06:20.399Z,0.50
2019-04-01T05:08:51.080Z,0.20
2019-04-01T05:13:59.801Z,0.20
2019-04-01T05:16:30.211Z,0.28
2019-04-01T05:19:00.524Z,0.10
2019-04-01T05:21:31.758Z,0.33
2019-04-01T05:24:02.765Z,0.30
2019-04-01T05:26:35.197Z,0.90
2019-04-01T05:29:06.919Z,0.13
2019-04-01T05:31:39.533Z,0.55
2019-04-01T05:34:12.186Z,0.10
2019-04-01T05:36:42.509Z,0.10
2019-04-01T05:39:12.951Z,0.20
2019-04-01T05:41:43.367Z,0.42
2019-04-01T05:44:14.831Z,0.30
2019-04-01T05:46:45.200Z,0.20
2019-04-01T05:49:15.638Z,1.65
2019-04-01T05:51:45.973Z,0.65
2019-04-01T05:54:16.467Z,0.10
2019-04-01T05:56:46.870Z,0.30
2019-04-01T05:59:17.389Z,0.20
2019-04-01T06:01:48.805Z,0.10
2019-04-01T06:04:19.626Z,0.10
2019-04-01T06:06:50.067Z,0.20
2019-04-01T06:09:20.667Z,0.20
2019-04-01T06:11:51.215Z,1.72
2019-04-01T06:14:21.838Z,0.20
2019-04-01T06:16:52.271Z,0.53
2019-04-01T06:19:22.887Z,0.88
2019-04-01T06:21:54.090Z,0.10
2019-04-01T06:24:24.953Z,0.20
2019-04-01T06:26:55.484Z,0.37
2019-04-01T06:29:25.826Z,0.10
2019-04-01T06:31:56.220Z,0.60
2019-04-01T06:34:26.777Z,0.10
2019-04-01T06:36:57.132Z,0.20
2019-04-01T06:39:27.521Z,0.10
2019-04-01T06:41:58.049Z,0.20
2019-04-01T06:44:28.418Z,0.20
2019-04-01T06:46:58.791Z,0.25
2019-04-01T06:49:29.218Z,0.25
2019-04-01T06:51:59.565Z,0.30
2019-04-01T06:54:29.956Z,0.55
2019-04-01T06:57:00.561Z,0.30
2019-04-01T06:59:30.964Z,0.30
2019-04-01T07:02:01.477Z,0.10
2019-04-01T07:04:32.013Z,0.40
2019-04-01T07:07:02.396Z,0.30
2019-04-01T07:09:32.764Z,0.30
2019-04-01T07:12:03.208Z,0.30
2019-04-01T07:14:33.527Z,0.13
2019-04-01T07:17:03.954Z,0.50
2019-04-01T07:19:34.653Z,0.20
2019-04-01T07:22:05.146Z,0.20
2019-04-01T07:24:35.529Z,0.40
2019-04-01T07:27:08.076Z,0.50
2019-04-01T07:29:38.107Z,0.30
2019-04-01T07:32:08.555Z,0.25
2019-04-01T07:34:38.983Z,0.42
2019-04-01T07:37:09.339Z,0.50
2019-04-01T07:39:39.760Z,0.53
2019-04-01T07:42:10.332Z,0.55
2019-04-01T07:44:40.800Z,0.60
2019-04-01T07:47:11.154Z,0.82
2019-04-01T07:49:41.715Z,0.33
2019-04-01T07:52:12.062Z,0.60
2019-04-01T07:54:43.063Z,0.57
2019-04-01T07:57:13.441Z,0.80
2019-04-01T07:59:43.801Z,0.47
2019-04-01T08:02:14.098Z,0.20
2019-04-01T08:04:44.506Z,0.40
2019-04-01T08:07:14.867Z,0.40
2019-04-01T08:09:45.274Z,0.45
2019-04-01T08:12:15.711Z,0.60
2019-04-01T08:14:46.129Z,0.55
2019-04-01T08:17:16.627Z,0.47
2019-04-01T08:19:47.031Z,0.88
2019-04-01T08:22:17.375Z,0.57
2019-04-01T08:24:47.893Z,1.10
2019-04-01T08:27:18.467Z,0.47
2019-04-01T08:29:48.927Z,0.50
2019-04-01T08:32:19.357Z,0.93
2019-04-01T08:34:49.778Z,0.80
2019-04-01T08:37:20.077Z,0.70
2019-04-01T08:39:50.843Z,0.57
2019-04-01T08:42:21.280Z,1.55
2019-04-01T08:44:51.670Z,0.93
2019-04-01T08:47:22.041Z,0.72
2019-04-01T08:49:52.476Z,0.53
2019-04-01T08:52:22.839Z,1.05
2019-04-01T08:54:53.270Z,0.55
2019-04-01T08:57:23.669Z,1.00
2019-04-01T08:59:56.336Z,0.50
2019-04-01T09:02:26.278Z,1.15
2019-04-01T09:04:56.728Z,1.00
2019-04-01T09:07:27.072Z,1.67
2019-04-01T09:09:58.624Z,1.30
2019-04-01T09:12:30.565Z,1.35
2019-04-01T09:15:01.844Z,1.87
2019-04-01T09:17:32.356Z,1.27
2019-04-01T09:20:02.968Z,1.52
2019-04-01T09:22:33.325Z,1.42
2019-04-01T09:25:04.732Z,1.17
2019-04-01T09:27:35.105Z,1.67
2019-04-01T09:30:06.807Z,1.55
2019-04-01T09:32:37.270Z,1.72
2019-04-01T09:35:08.151Z,1.22
2019-04-01T09:37:38.605Z,0.95
2019-04-01T09:40:09.140Z,1.77
2019-04-01T09:42:39.574Z,2.00
2019-04-01T09:45:10.371Z,2.42
2019-04-01T09:47:40.871Z,1.67
2019-04-01T09:50:11.756Z,2.08
2019-04-01T09:52:42.165Z,1.75
2019-04-01T09:55:12.579Z,2.52
2019-04-01T09:57:43.090Z,2.33
2019-04-01T10:00:14.039Z,2.05
2019-04-01T10:02:44.414Z,2.47
2019-04-01T10:05:14.806Z,2.10
2019-04-01T10:07:45.294Z,3.08
2019-04-01T10:10:16.132Z,2.95
2019-04-01T10:12:46.498Z,2.45
2019-04-01T10:15:17.362Z,2.70
2019-04-01T10:17:47.802Z,3.30
2019-04-01T10:20:18.331Z,3.00
2019-04-01T10:22:48.778Z,4.05
2019-04-01T10:25:19.254Z,2.72
2019-04-01T10:27:49.681Z,3.55
2019-04-01T10:30:20.470Z,3.87
2019-04-01T10:33:10.007Z,4.30
2019-04-01T10:35:43.584Z,3.70
2019-04-01T10:38:14.042Z,3.72
2019-04-01T10:40:45.174Z,4.10
2019-04-01T10:43:15.635Z,3.90
2019-04-01T10:45:46.116Z,4.47
2019-04-01T10:48:16.687Z,4.70
2019-04-01T10:50:47.113Z,5.22
2019-04-01T10:53:17.536Z,4.45
2019-04-01T10:55:48.016Z,5.30
2019-04-01T10:58:18.396Z,5.75
2019-04-01T11:00:48.884Z,4.75
2019-04-01T11:03:19.331Z,4.80
2019-04-01T11:05:49.905Z,5.87
2019-04-01T11:08:20.403Z,5.47
2019-04-01T11:10:50.795Z,5.70
2019-04-01T11:13:22.006Z,5.97
2019-04-01T11:15:53.239Z,6.40
2019-04-01T11:18:23.621Z,7.08
2019-04-01T11:20:56.872Z,5.28
2019-04-01T11:23:26.282Z,6.65
2019-04-01T11:25:56.635Z,6.85
2019-04-01T11:28:27.035Z,6.22
2019-04-01T11:30:57.456Z,6.90
2019-04-01T11:33:27.885Z,7.37
2019-04-01T11:35:58.350Z,6.95
2019-04-01T11:38:28.797Z,6.67
2019-04-01T11:40:59.219Z,7.37
2019-04-01T11:43:29.850Z,7.60
2019-04-01T11:46:00.273Z,6.80
2019-04-01T11:48:30.659Z,7.87
2019-04-01T11:51:01.259Z,7.25
2019-04-01T11:53:31.700Z,7.12
2019-04-01T11:56:02.104Z,7.60
2019-04-01T11:58:32.543Z,7.35
2019-04-01T12:01:02.937Z,9.05
2019-04-01T12:03:33.334Z,9.00
2019-04-01T12:06:03.802Z,8.00
2019-04-01T12:08:34.267Z,8.45
2019-04-01T12:11:04.650Z,8.60
2019-04-01T12:13:35.091Z,8.60
2019-04-01T12:16:06.626Z,8.03
2019-04-01T12:18:37.658Z,8.70
2019-04-01T12:21:08.380Z,9.63
2019-04-01T12:23:39.036Z,9.63
2019-04-01T12:26:15.395Z,10.18
2019-04-01T12:28:42.677Z,8.93
2019-04-01T12:31:13.873Z,9.03
2019-04-01T12:33:44.367Z,9.53
2019-04-01T12:36:14.919Z,9.85
2019-04-01T12:38:45.291Z,9.45
2019-04-01T12:41:15.722Z,8.88
2019-04-01T12:43:46.113Z,9.55
2019-04-01T12:46:16.623Z,9.73
2019-04-01T12:48:46.985Z,10.18
2019-04-01T12:51:17.433Z,8.80
2019-04-01T12:53:47.834Z,10.03
2019-04-01T12:56:19.757Z,10.28
2019-04-01T12:58:50.156Z,9.98
2019-04-01T13:01:39.674Z,9.65
2019-04-01T13:04:10.093Z,11.03
2019-04-01T13:06:40.466Z,10.38
2019-04-01T13:09:11.001Z,13.53
2019-04-01T13:11:41.351Z,9.68
2019-04-01T13:14:11.997Z,10.10
2019-04-01T13:16:43.416Z,10.20
2019-04-01T13:19:13.842Z,10.53
2019-04-01T13:21:44.413Z,9.83
2019-04-01T13:24:14.926Z,9.25
2019-04-01T13:26:45.281Z,10.60
2019-04-01T13:29:15.724Z,10.05
2019-04-01T13:31:46.167Z,10.30
2019-04-01T13:34:20.003Z,9.50
2019-04-01T13:36:49.259Z,9.75
2019-04-01T13:39:20.726Z,11.55
2019-04-01T13:41:51.163Z,10.90
2019-04-01T13:44:35.707Z,10.15
2019-04-01T13:46:55.962Z,10.53
2019-04-01T13:49:25.941Z,11.25
2019-04-01T13:51:56.345Z,9.98
2019-04-01T13:54:26.814Z,10.72
2019-04-01T13:56:57.179Z,10.80
2019-04-01T13:59:27.640Z,10.18
2019-04-01T14:01:58.030Z,12.73
2019-04-01T14:04:28.386Z,12.07
2019-04-01T14:06:58.822Z,11.68
2019-04-01T14:09:30.919Z,12.80
2019-04-01T14:12:01.565Z,11.22
2019-04-01T14:14:31.939Z,11.05
2019-04-01T14:17:02.333Z,12.93
2019-04-01T14:19:32.814Z,12.82
2019-04-01T14:22:03.265Z,12.68
2019-04-01T14:24:33.989Z,13.80
2019-04-01T14:27:04.386Z,12.55
2019-04-01T14:29:35.723Z,13.90
2019-04-01T14:32:07.009Z,13.48
2019-04-01T14:34:37.433Z,13.03
2019-04-01T14:37:09.755Z,12.78
2019-04-01T14:39:39.959Z,13.32
2019-04-01T14:42:10.352Z,13.08
2019-04-01T14:44:40.715Z,14.28
2019-04-01T14:47:11.163Z,14.15
2019-04-01T14:49:41.569Z,12.68
2019-04-01T14:52:12.085Z,13.13
2019-04-01T14:54:42.561Z,13.58
2019-04-01T14:57:13.085Z,12.80
2019-04-01T14:59:43.485Z,14.23
2019-04-01T15:02:14.129Z,13.88
2019-04-01T15:04:44.515Z,13.80
2019-04-01T15:07:18.150Z,14.13
2019-04-01T15:09:47.086Z,13.83
2019-04-01T15:12:17.470Z,14.03
2019-04-01T15:14:47.837Z,13.68
2019-04-01T15:17:18.229Z,13.90
2019-04-01T15:19:48.849Z,14.33
2019-04-01T15:22:19.198Z,13.28
2019-04-01T15:24:49.710Z,13.45
2019-04-01T15:27:22.527Z,14.33
2019-04-01T15:29:52.218Z,14.10
2019-04-01T15:32:23.127Z,15.83
2019-04-01T15:34:53.785Z,13.70
2019-04-01T15:37:24.167Z,14.85
2019-04-01T15:39:54.594Z,13.93
2019-04-01T15:42:25.037Z,13.45
2019-04-01T15:44:55.414Z,13.45
2019-04-01T15:47:25.845Z,14.87
2019-04-01T15:49:56.237Z,14.05
2019-04-01T15:52:26.595Z,15.30
2019-04-01T15:54:57.992Z,15.10
2019-04-01T15:57:28.641Z,15.65
2019-04-01T15:59:59.001Z,13.45
2019-04-01T16:02:29.832Z,14.43
2019-04-01T16:05:00.260Z,14.10
2019-04-01T16:07:30.741Z,14.78
2019-04-01T16:10:01.743Z,14.95
2019-04-01T16:12:32.174Z,14.45
2019-04-01T16:15:02.541Z,14.83
2019-04-01T16:17:33.842Z,14.80
2019-04-01T16:20:04.479Z,14.30
2019-04-01T16:22:34.888Z,16.37
2019-04-01T16:25:05.895Z,14.47
2019-04-01T16:27:36.507Z,13.10
2019-04-01T16:30:07.359Z,14.20
2019-04-01T16:32:37.820Z,14.40
2019-04-01T16:35:08.404Z,14.53
2019-04-01T16:37:38.828Z,17.25
2019-04-01T16:40:09.511Z,14.55
2019-04-01T16:42:40.041Z,14.63
2019-04-01T16:45:11.146Z,15.13
2019-04-01T16:47:42.266Z,15.40
2019-04-01T16:50:12.827Z,15.23
2019-04-01T16:52:43.167Z,15.08
2019-04-01T16:55:13.912Z,16.37
2019-04-01T16:57:44.275Z,16.32
2019-04-01T17:00:15.427Z,16.75
2019-04-01T17:02:45.893Z,16.70
2019-04-01T17:05:19.423Z,17.37
2019-04-01T17:07:49.879Z,18.07
2019-04-01T17:10:24.572Z,16.73
2019-04-01T17:12:54.966Z,15.45
2019-04-01T17:15:25.404Z,16.05
2019-04-01T17:17:55.807Z,17.67
2019-04-01T17:20:26.172Z,15.83
2019-04-01T17:22:56.559Z,16.60
2019-04-01T17:25:26.953Z,16.67
2019-04-01T17:27:57.490Z,15.53
2019-04-01T17:30:29.324Z,16.73
2019-04-01T17:32:59.785Z,16.48
2019-04-01T17:35:30.147Z,19.37
2019-04-01T17:38:00.568Z,16.17
2019-04-01T17:40:30.981Z,17.23
2019-04-01T17:43:01.400Z,15.88
2019-04-01T17:45:40.279Z,17.77
2019-04-01T17:48:11.069Z,17.87
2019-04-01T17:50:41.442Z,16.97
2019-04-01T17:53:12.676Z,15.18
2019-04-01T17:55:45.601Z,16.73
2019-04-01T17:58:15.531Z,15.98
2019-04-01T18:00:52.333Z,15.98
2019-04-01T18:03:22.823Z,15.38
2019-04-01T18:05:53.328Z,15.88
2019-04-01T18:08:23.757Z,15.53
2019-04-01T18:10:54.168Z,14.95
2019-04-01T18:13:24.690Z,15.35
2019-04-01T18:15:57.302Z,15.65
2019-04-01T18:18:27.652Z,14.35
2019-04-01T18:20:58.197Z,14.07
2019-04-01T18:23:28.586Z,15.25
2019-04-01T18:25:58.963Z,14.13
2019-04-01T18:28:29.423Z,14.07
2019-04-01T18:30:59.821Z,13.65
2019-04-01T18:33:30.588Z,13.30
2019-04-01T18:36:01.105Z,15.72
2019-04-01T18:38:31.467Z,12.80
2019-04-01T18:41:01.912Z,14.23
2019-04-01T18:43:32.424Z,13.08
2019-04-01T18:46:02.740Z,12.73
2019-04-01T18:48:33.173Z,14.50
2019-04-01T18:51:03.953Z,14.50
2019-04-01T18:53:35.279Z,14.07
2019-04-01T18:56:06.449Z,14.23
2019-04-01T18:58:36.813Z,14.50
2019-04-01T19:01:07.242Z,15.08
2019-04-01T19:03:39.467Z,16.05
2019-04-01T19:06:10.467Z,15.32
2019-04-01T19:08:40.873Z,16.30
2019-04-01T19:11:11.327Z,16.37
2019-04-01T19:13:42.390Z,16.35
2019-04-01T19:16:16.422Z,16.32
2019-04-01T19:18:45.153Z,15.70
2019-04-01T19:21:15.569Z,15.78
2019-04-01T19:23:45.950Z,16.20
2019-04-01T19:26:16.355Z,16.05
2019-04-01T19:28:47.241Z,16.95
2019-04-01T19:31:17.894Z,16.95
2019-04-01T19:33:48.287Z,15.83
2019-04-01T19:36:18.702Z,16.20
2019-04-01T19:38:49.507Z,16.70
2019-04-01T19:41:20.636Z,15.70
2019-04-01T19:43:51.468Z,16.23
2019-04-01T19:46:21.869Z,16.37
2019-04-01T19:48:52.266Z,16.70
2019-04-01T19:51:22.749Z,15.40
2019-04-01T19:53:53.288Z,15.80
2019-04-01T19:56:23.989Z,15.13
2019-04-01T19:58:54.439Z,17.32
2019-04-01T20:01:25.028Z,16.45
2019-04-01T20:03:56.001Z,16.85
2019-04-01T20:06:26.463Z,16.70
2019-04-01T20:08:56.891Z,16.07
2019-04-01T20:11:27.278Z,16.07
2019-04-01T20:13:57.660Z,17.52
2019-04-01T20:16:28.030Z,17.05
2019-04-01T20:18:58.474Z,17.30
2019-04-01T20:21:28.934Z,17.15
2019-04-01T20:23:59.308Z,17.77
2019-04-01T20:26:29.686Z,17.15
2019-04-01T20:29:00.126Z,14.95
2019-04-01T20:31:30.515Z,16.35
2019-04-01T20:34:04.099Z,15.15
2019-04-01T20:36:33.178Z,14.60
2019-04-01T20:39:05.310Z,15.48
2019-04-01T20:41:35.676Z,15.20
2019-04-01T20:44:06.175Z,14.35
2019-04-01T20:46:36.605Z,14.33
2019-04-01T20:49:07.151Z,14.40
2019-04-01T20:51:37.607Z,14.87
2019-04-01T20:54:07.991Z,14.85
2019-04-01T20:56:38.411Z,14.85
2019-04-01T20:59:10.228Z,15.60
2019-04-01T21:01:41.021Z,14.60
2019-04-01T21:04:11.471Z,14.05
2019-04-01T21:06:41.838Z,15.28
2019-04-01T21:09:12.730Z,14.45
2019-04-01T21:11:43.112Z,14.53
2019-04-01T21:14:13.488Z,14.35
2019-04-01T21:16:43.906Z,15.45
2019-04-01T21:19:14.296Z,14.58
2019-04-01T21:21:44.672Z,14.45
2019-04-01T21:24:15.106Z,14.87
2019-04-01T21:26:45.468Z,14.23
2019-04-01T21:29:15.881Z,16.62
2019-04-01T21:31:47.176Z,14.33
2019-04-01T21:34:18.534Z,14.40
2019-04-01T21:36:48.865Z,15.23
2019-04-01T21:39:19.280Z,14.73
2019-04-01T21:41:49.641Z,14.47
2019-04-01T21:44:20.025Z,15.08
2019-04-01T21:46:50.453Z,14.87
2019-04-01T21:49:20.791Z,14.35
2019-04-01T21:51:51.183Z,14.15
2019-04-01T21:54:21.523Z,15.85
2019-04-01T21:56:52.145Z,14.28
2019-04-01T21:59:22.795Z,14.45
2019-04-01T22:01:53.419Z,14.90
2019-04-01T22:04:23.883Z,13.28
2019-04-01T22:06:54.258Z,16.05
2019-04-01T22:09:24.710Z,13.43
2019-04-01T22:11:55.110Z,14.20
2019-04-01T22:14:25.656Z,13.93
2019-04-01T22:16:56.005Z,14.00
2019-04-01T22:19:26.316Z,14.47
2019-04-01T22:21:56.659Z,13.48
2019-04-01T22:24:27.036Z,15.40
2019-04-01T22:26:57.357Z,14.40
2019-04-01T22:29:27.684Z,14.98
2019-04-01T22:31:58.096Z,15.18
2019-04-01T22:34:28.459Z,14.83
2019-04-01T22:36:58.778Z,15.25
2019-04-01T22:39:29.142Z,14.60
2019-04-01T22:41:59.438Z,15.13
2019-04-01T22:44:29.821Z,13.95
2019-04-01T22:47:00.244Z,14.50
2019-04-01T22:49:30.718Z,15.25
2019-04-01T22:52:01.036Z,14.65
2019-04-01T22:54:31.485Z,14.47
2019-04-01T22:57:01.851Z,14.85
2019-04-01T22:59:32.195Z,15.35
2019-04-01T23:02:02.611Z,14.78
2019-04-01T23:04:32.948Z,14.55
2019-04-01T23:07:04.101Z,15.72
2019-04-01T23:09:34.624Z,14.73
2019-04-01T23:12:05.017Z,16.37
2019-04-01T23:14:35.371Z,16.25
2019-04-01T23:17:05.745Z,16.65
2019-04-01T23:19:36.076Z,15.35
2019-04-01T23:22:06.789Z,15.83
2019-04-01T23:24:37.199Z,16.45
2019-04-01T23:27:07.529Z,15.80
2019-04-01T23:29:37.879Z,15.53
2019-04-01T23:32:08.231Z,15.20
2019-04-01T23:34:38.627Z,15.25
2019-04-01T23:37:09.266Z,16.93
2019-04-01T23:39:40.251Z,16.20
2019-04-01T23:42:10.714Z,17.17
2019-04-01T23:44:41.038Z,15.05
2019-04-01T23:47:11.483Z,15.18
2019-04-01T23:49:41.840Z,15.78
2019-04-01T23:52:12.206Z,16.60
2019-04-01T23:54:42.551Z,15.03
2019-04-01T23:57:12.953Z,16.67
2019-04-01T23:59:43.402Z,15.83
